Time;durP1;ratioP1;P1;durP2;ratioP2;P2;SDS_P1;SDS_P2;PMS_P1;PMS_P2;Temp;Humidity;BMP_temperature;BMP_pressure;BME280_temperature;BME280_humidity;BME280_pressure;Samples;Min_cycle;Max_cycle;Signal;HPM_P1;HPM_P2
2021/08/21 00:01:42;;;;;;;5.80;5.15;;;18.10;77.40;;;;;;4988256;28;20382;-75
2021/08/21 00:04:09;;;;;;;5.45;4.85;;;18.20;77.50;;;;;;4981657;28;20050;-75
2021/08/21 00:06:35;;;;;;;5.50;4.95;;;18.20;77.40;;;;;;4987717;28;20015;-76
2021/08/21 00:09:01;;;;;;;8.07;5.18;;;18.10;77.30;;;;;;4979580;28;20436;-77
2021/08/21 00:11:27;;;;;;;5.25;4.57;;;18.10;77.40;;;;;;4982564;28;20019;-76
2021/08/21 00:13:52;;;;;;;5.32;4.55;;;18.10;78.10;;;;;;4986854;28;20992;-77
2021/08/21 00:16:18;;;;;;;5.65;5.05;;;18.10;77.60;;;;;;4987098;28;20918;-78
2021/08/21 00:18:43;;;;;;;8.27;5.60;;;18.00;77.50;;;;;;4980413;28;20027;-77
2021/08/21 00:21:09;;;;;;;6.30;5.28;;;18.00;77.50;;;;;;4981267;28;20031;-76
2021/08/21 00:23:34;;;;;;;6.22;5.53;;;18.00;77.60;;;;;;4990195;28;20027;-77
2021/08/21 00:26:00;;;;;;;7.47;5.32;;;18.00;77.70;;;;;;4984304;28;20030;-77
2021/08/21 00:28:25;;;;;;;6.22;5.30;;;18.00;77.70;;;;;;4980190;28;20083;-76
2021/08/21 00:30:51;;;;;;;6.07;5.25;;;17.90;77.70;;;;;;4985916;28;20093;-76
2021/08/21 00:33:16;;;;;;;6.05;4.97;;;17.90;77.80;;;;;;4986269;28;20041;-76
2021/08/21 00:35:42;;;;;;;5.80;5.03;;;17.90;77.90;;;;;;4990291;28;20039;-76
2021/08/21 00:38:08;;;;;;;7.57;5.82;;;17.90;77.80;;;;;;4984360;28;20401;-75
2021/08/21 00:40:33;;;;;;;6.93;5.70;;;17.90;78.50;;;;;;4989778;28;20030;-76
2021/08/21 00:42:59;;;;;;;5.60;4.95;;;17.90;77.90;;;;;;4984301;28;20038;-75
2021/08/21 00:45:24;;;;;;;6.20;5.20;;;17.90;77.80;;;;;;4984613;28;20457;-75
2021/08/21 00:47:50;;;;;;;6.28;4.97;;;17.80;77.80;;;;;;4980464;28;20092;-75
2021/08/21 00:50:15;;;;;;;6.97;5.38;;;17.80;77.90;;;;;;4988401;28;20022;-76
2021/08/21 00:52:41;;;;;;;6.00;5.18;;;17.80;77.90;;;;;;4985393;28;20042;-76
2021/08/21 00:55:08;;;;;;;6.90;5.38;;;17.70;77.90;;;;;;4988365;28;20032;-76
2021/08/21 00:57:34;;;;;;;6.30;5.15;;;17.80;78.00;;;;;;4983551;28;20041;-77
2021/08/21 00:59:59;;;;;;;6.35;5.45;;;17.70;77.90;;;;;;4982621;28;20561;-76
2021/08/21 01:02:25;;;;;;;7.20;5.85;;;17.70;77.90;;;;;;4982299;28;20061;-77
2021/08/21 01:04:57;;;;;;;6.63;5.60;;;17.70;77.70;;;;;;4983661;28;20516;-76
2021/08/21 01:07:33;;;;;;;7.75;5.65;;;17.70;77.70;;;;;;4979260;28;20093;-75
2021/08/21 01:10:04;;;;;;;6.38;5.68;;;17.70;77.90;;;;;;4985264;28;20041;-76
2021/08/21 01:12:30;;;;;;;7.50;6.20;;;17.70;77.80;;;;;;4977724;28;20060;-76
2021/08/21 01:14:56;;;;;;;7.20;6.07;;;17.70;77.70;;;;;;4980343;28;20086;-76
2021/08/21 01:17:21;;;;;;;8.55;6.90;;;17.70;77.70;;;;;;4988003;28;20034;-76
2021/08/21 01:19:48;;;;;;;7.72;6.30;;;17.70;77.70;;;;;;4988945;28;20019;-75
2021/08/21 01:22:20;;;;;;;8.57;6.28;;;17.60;77.70;;;;;;4981932;28;20088;-75
2021/08/21 01:24:47;;;;;;;6.50;5.63;;;17.60;77.80;;;;;;4983329;28;20118;-75
2021/08/21 01:27:21;;;;;;;6.43;5.60;;;17.50;78.00;;;;;;4989420;28;20029;-75
2021/08/21 01:29:48;;;;;;;7.82;6.47;;;17.40;78.20;;;;;;4993078;28;20057;-76
2021/08/21 01:32:14;;;;;;;8.43;6.38;;;17.40;78.20;;;;;;4987588;28;20054;-75
2021/08/21 01:34:40;;;;;;;6.93;5.95;;;17.50;78.10;;;;;;4990963;28;20026;-75
2021/08/21 01:37:06;;;;;;;7.28;5.55;;;17.50;78.10;;;;;;4988270;28;20088;-75
2021/08/21 01:39:31;;;;;;;7.18;5.97;;;17.40;78.10;;;;;;4994559;28;20068;-75
2021/08/21 01:41:57;;;;;;;7.75;6.22;;;17.40;78.30;;;;;;4985882;28;20363;-76
2021/08/21 01:44:23;;;;;;;7.07;5.85;;;17.30;78.30;;;;;;4989031;28;20093;-76
2021/08/21 01:46:49;;;;;;;8.30;6.53;;;17.30;78.40;;;;;;4984400;28;20043;-77
2021/08/21 01:49:16;;;;;;;10.07;6.38;;;17.30;78.30;;;;;;4982057;28;20023;-76
2021/08/21 01:51:44;;;;;;;7.28;6.35;;;17.30;78.30;;;;;;4991543;28;20501;-75
2021/08/21 01:54:14;;;;;;;8.38;6.72;;;17.30;78.30;;;;;;4985477;28;20109;-76
2021/08/21 01:56:42;;;;;;;8.07;6.18;;;17.30;78.20;;;;;;4983012;28;20022;-75
2021/08/21 01:59:08;;;;;;;7.93;6.68;;;17.30;78.10;;;;;;4977781;28;20022;-75
2021/08/21 02:01:33;;;;;;;7.85;6.35;;;17.40;78.00;;;;;;4987319;28;20822;-76
2021/08/21 02:03:59;;;;;;;8.75;7.20;;;17.30;77.80;;;;;;4988297;28;21008;-75
2021/08/21 02:06:24;;;;;;;10.82;7.63;;;17.30;77.80;;;;;;4988816;28;20026;-75
2021/08/21 02:08:50;;;;;;;9.40;7.35;;;17.30;77.80;;;;;;4993070;28;20031;-75
2021/08/21 02:11:15;;;;;;;10.30;7.75;;;17.30;77.80;;;;;;4984353;28;20093;-74
2021/08/21 02:13:41;;;;;;;7.82;6.50;;;17.30;77.80;;;;;;4981649;28;20370;-75
2021/08/21 02:16:06;;;;;;;9.88;7.78;;;17.30;77.80;;;;;;4986012;28;20357;-75
2021/08/21 02:18:32;;;;;;;7.95;6.65;;;17.30;77.80;;;;;;4990982;28;20034;-75
2021/08/21 02:20:58;;;;;;;7.53;6.35;;;17.20;77.90;;;;;;4984188;28;20042;-75
2021/08/21 02:23:24;;;;;;;8.63;6.95;;;17.20;78.10;;;;;;4986829;28;20195;-76
2021/08/21 02:25:56;;;;;;;7.95;6.85;;;17.20;78.10;;;;;;4985165;28;20034;-75
2021/08/21 02:28:21;;;;;;;8.32;6.45;;;17.10;78.10;;;;;;4984491;28;20025;-75
2021/08/21 02:30:47;;;;;;;8.45;6.57;;;17.10;78.10;;;;;;4990689;28;20101;-76
2021/08/21 02:33:13;;;;;;;8.23;6.35;;;17.10;78.20;;;;;;4990341;28;20401;-76
2021/08/21 02:35:39;;;;;;;7.50;5.93;;;17.00;78.30;;;;;;4988863;28;20046;-74
2021/08/21 02:38:05;;;;;;;8.18;6.68;;;17.00;78.50;;;;;;4985264;28;20486;-74
2021/08/21 02:40:31;;;;;;;8.10;6.40;;;17.00;78.40;;;;;;4982240;28;20034;-75
2021/08/21 02:42:57;;;;;;;7.95;6.28;;;17.00;78.20;;;;;;4989312;28;20082;-74
2021/08/21 02:45:22;;;;;;;8.98;6.93;;;17.00;78.10;;;;;;4984114;28;20114;-75
2021/08/21 02:47:48;;;;;;;7.72;6.07;;;17.00;78.10;;;;;;4987411;28;20073;-75
2021/08/21 02:50:13;;;;;;;8.73;6.82;;;17.00;78.10;;;;;;4984520;28;20026;-75
2021/08/21 02:52:39;;;;;;;7.47;6.18;;;17.00;78.20;;;;;;4986854;28;20351;-75
2021/08/21 02:55:05;;;;;;;8.63;6.32;;;17.00;78.20;;;;;;4984765;28;20080;-75
2021/08/21 02:57:31;;;;;;;8.88;6.40;;;17.00;78.20;;;;;;4982680;28;20525;-76
2021/08/21 02:59:56;;;;;;;8.55;6.40;;;17.00;78.10;;;;;;4991068;28;20045;-75
2021/08/21 03:02:22;;;;;;;8.32;6.22;;;17.00;78.20;;;;;;4988714;28;20027;-76
2021/08/21 03:04:47;;;;;;;7.93;6.07;;;17.00;78.20;;;;;;4986304;28;21035;-75
2021/08/21 03:07:13;;;;;;;7.80;6.10;;;16.90;78.20;;;;;;4986102;28;20038;-75
2021/08/21 03:09:38;;;;;;;8.30;6.53;;;16.90;78.30;;;;;;4976823;28;20026;-76
2021/08/21 03:12:04;;;;;;;7.82;5.85;;;16.90;78.30;;;;;;4980977;28;20132;-76
2021/08/21 03:14:30;;;;;;;8.20;6.57;;;16.90;78.40;;;;;;4979846;28;20544;-75
2021/08/21 03:16:55;;;;;;;8.23;6.38;;;16.80;78.50;;;;;;4985018;28;20042;-75
2021/08/21 03:19:21;;;;;;;8.65;6.85;;;16.90;78.60;;;;;;4986881;28;20038;-76
2021/08/21 03:21:46;;;;;;;9.43;7.40;;;16.80;78.50;;;;;;4988048;28;20062;-76
2021/08/21 03:24:12;;;;;;;8.68;6.22;;;16.90;78.40;;;;;;4982749;28;20034;-76
2021/08/21 03:26:37;;;;;;;7.63;6.18;;;16.90;78.50;;;;;;4979148;28;20026;-75
2021/08/21 03:29:03;;;;;;;8.60;6.32;;;16.90;78.50;;;;;;4990223;28;20034;-76
2021/08/21 03:31:29;;;;;;;9.27;6.28;;;16.90;78.50;;;;;;4992037;28;20363;-76
2021/08/21 03:33:56;;;;;;;8.18;5.95;;;16.90;78.60;;;;;;4986008;28;20414;-75
2021/08/21 03:36:21;;;;;;;8.40;5.82;;;17.00;78.70;;;;;;4989814;28;20034;-76
2021/08/21 03:38:47;;;;;;;8.23;6.32;;;17.00;78.70;;;;;;4980313;28;20034;-75
2021/08/21 03:41:12;;;;;;;7.45;5.85;;;17.00;78.70;;;;;;4986075;28;20031;-75
2021/08/21 03:43:38;;;;;;;7.70;5.68;;;17.00;78.60;;;;;;4978423;28;20100;-75
2021/08/21 03:46:03;;;;;;;7.45;5.60;;;17.10;78.70;;;;;;4981551;28;20026;-76
2021/08/21 03:48:29;;;;;;;8.65;6.65;;;17.10;78.60;;;;;;4974174;28;20393;-77
2021/08/21 03:50:54;;;;;;;7.55;6.10;;;17.20;78.40;;;;;;4978947;28;20109;-75
2021/08/21 03:53:20;;;;;;;6.72;5.30;;;17.20;78.90;;;;;;4980570;28;20041;-76
2021/08/21 03:55:48;;;;;;;8.98;6.68;;;17.30;78.20;;;;;;4983699;28;20030;-76
2021/08/21 03:58:13;;;;;;;8.82;6.15;;;17.30;78.10;;;;;;4982473;28;20035;-76
2021/08/21 04:00:39;;;;;;;6.97;5.43;;;17.30;78.10;;;;;;4982755;28;20072;-76
2021/08/21 04:03:05;;;;;;;8.25;6.10;;;17.30;78.30;;;;;;4978876;28;20039;-76
2021/08/21 04:05:31;;;;;;;8.32;6.55;;;17.30;78.50;;;;;;4983735;28;20081;-76
2021/08/21 04:07:57;;;;;;;8.50;6.22;;;17.30;78.50;;;;;;4985547;28;20034;-76
2021/08/21 04:10:22;;;;;;;7.78;6.00;;;17.40;78.40;;;;;;4983578;28;20022;-76
2021/08/21 04:12:48;;;;;;;7.85;5.85;;;17.30;78.50;;;;;;4990294;28;20038;-76
2021/08/21 04:15:14;;;;;;;8.48;6.15;;;17.40;78.70;;;;;;4988949;28;20023;-76
2021/08/21 04:17:39;;;;;;;7.85;5.97;;;17.40;78.70;;;;;;4989270;28;20029;-76
2021/08/21 04:20:05;;;;;;;7.35;5.95;;;17.50;78.70;;;;;;4980140;28;20019;-76
2021/08/21 04:22:31;;;;;;;7.35;5.70;;;17.50;78.60;;;;;;4976506;28;20511;-76
2021/08/21 04:24:57;;;;;;;7.63;6.05;;;17.50;78.60;;;;;;4990229;28;20022;-76
2021/08/21 04:27:23;;;;;;;8.60;5.68;;;17.50;78.70;;;;;;4976946;28;20023;-76
2021/08/21 04:29:48;;;;;;;9.00;6.30;;;17.50;78.80;;;;;;4979024;28;20472;-76
2021/08/21 04:32:14;;;;;;;9.05;6.32;;;17.60;78.80;;;;;;4975364;28;20686;-76
2021/08/21 04:34:39;;;;;;;7.70;5.95;;;17.70;78.70;;;;;;4979021;28;20533;-76
2021/08/21 04:37:05;;;;;;;8.05;6.00;;;17.70;78.70;;;;;;4977710;28;20090;-76
2021/08/21 04:39:31;;;;;;;8.15;5.88;;;17.70;78.80;;;;;;4986138;28;20045;-75
2021/08/21 04:41:56;;;;;;;7.30;5.43;;;17.70;78.70;;;;;;4986618;28;20513;-76
2021/08/21 04:44:22;;;;;;;8.23;5.75;;;17.80;78.70;;;;;;4985160;28;20030;-76
2021/08/21 04:46:47;;;;;;;7.18;5.47;;;17.70;78.70;;;;;;4982532;28;20042;-77
2021/08/21 04:49:13;;;;;;;8.07;6.10;;;17.80;78.80;;;;;;4980451;28;20497;-76
2021/08/21 04:51:38;;;;;;;7.93;6.18;;;17.80;78.80;;;;;;4984591;28;20515;-75
2021/08/21 04:54:04;;;;;;;8.18;6.00;;;17.80;78.80;;;;;;4979285;28;20505;-76
2021/08/21 04:56:29;;;;;;;8.77;6.20;;;17.80;78.90;;;;;;4987588;28;20038;-75
2021/08/21 04:58:55;;;;;;;8.85;5.82;;;17.80;78.90;;;;;;4983341;28;20042;-76
2021/08/21 05:01:21;;;;;;;9.38;6.35;;;17.80;79.00;;;;;;4989044;28;20031;-77
2021/08/21 05:03:46;;;;;;;8.93;6.72;;;17.80;79.00;;;;;;4988520;28;20038;-76
2021/08/21 05:06:12;;;;;;;9.43;6.88;;;17.80;79.00;;;;;;4979530;28;20026;-76
2021/08/21 05:08:38;;;;;;;9.05;6.55;;;17.90;79.10;;;;;;4984201;28;20026;-76
2021/08/21 05:11:03;;;;;;;9.07;7.07;;;17.90;79.10;;;;;;4988055;28;20022;-77
2021/08/21 05:13:29;;;;;;;9.32;6.55;;;17.90;79.10;;;;;;4989538;28;20034;-77
2021/08/21 05:15:54;;;;;;;10.18;7.35;;;17.90;79.00;;;;;;4989282;28;20022;-77
2021/08/21 05:18:27;;;;;;;9.13;6.72;;;18.00;79.10;;;;;;4986616;28;20040;-77
2021/08/21 05:20:54;;;;;;;10.20;7.60;;;18.00;79.00;;;;;;4974486;28;20031;-78
2021/08/21 05:23:19;;;;;;;8.02;6.38;;;18.00;79.10;;;;;;4990276;28;20041;-76
2021/08/21 05:25:48;;;;;;;11.30;8.75;;;18.10;79.10;;;;;;4987528;28;20026;-76
2021/08/21 05:28:16;;;;;;;10.43;8.05;;;18.10;79.20;;;;;;4986984;28;20019;-80
2021/08/21 05:30:42;;;;;;;9.60;7.53;;;18.10;79.20;;;;;;4993745;28;20073;-75
2021/08/21 05:33:13;;;;;;;8.57;7.05;;;18.20;79.30;;;;;;4988320;28;20109;-76
2021/08/21 05:35:39;;;;;;;10.75;7.43;;;18.20;79.30;;;;;;4988387;28;20045;-76
2021/08/21 05:38:05;;;;;;;10.77;7.78;;;18.20;79.30;;;;;;4988190;28;20382;-75
2021/08/21 05:40:33;;;;;;;13.65;9.98;;;18.30;79.30;;;;;;4989572;28;20033;-76
2021/08/21 05:42:59;;;;;;;12.88;9.73;;;18.40;79.20;;;;;;4988393;28;20038;-75
2021/08/21 05:45:25;;;;;;;11.73;8.88;;;18.50;79.10;;;;;;4989262;28;20070;-76
2021/08/21 05:47:51;;;;;;;12.15;8.73;;;18.50;79.00;;;;;;4987329;28;20058;-75
2021/08/21 05:50:18;;;;;;;10.50;7.40;;;18.60;78.90;;;;;;4983442;28;20029;-75
2021/08/21 05:52:44;;;;;;;13.57;9.50;;;18.70;78.90;;;;;;4985920;28;20023;-75
2021/08/21 05:55:10;;;;;;;13.05;9.13;;;18.80;78.70;;;;;;4991658;28;20362;-75
2021/08/21 05:57:35;;;;;;;13.68;9.35;;;18.90;78.50;;;;;;4990390;28;20160;-75
2021/08/21 06:00:07;;;;;;;13.27;9.95;;;19.00;78.30;;;;;;4988889;28;20022;-75
2021/08/21 06:02:36;;;;;;;11.48;8.00;;;19.20;78.20;;;;;;4986582;28;20061;-77
2021/08/21 06:05:02;;;;;;;10.27;7.53;;;19.40;77.70;;;;;;4989998;28;20034;-76
2021/08/21 06:07:29;;;;;;;9.57;7.07;;;19.40;77.50;;;;;;4990205;28;20028;-76
2021/08/21 06:09:55;;;;;;;10.98;7.82;;;19.40;77.50;;;;;;4986158;28;20391;-76
2021/08/21 06:12:20;;;;;;;10.05;7.72;;;19.50;77.60;;;;;;4987436;28;20026;-76
2021/08/21 06:14:46;;;;;;;13.30;9.73;;;19.40;77.60;;;;;;4984936;28;20019;-76
2021/08/21 06:17:11;;;;;;;15.75;11.65;;;19.40;77.80;;;;;;4989218;28;20538;-76
2021/08/21 06:19:38;;;;;;;14.50;10.35;;;19.30;78.20;;;;;;4985132;28;20034;-77
2021/08/21 06:22:04;;;;;;;13.15;10.05;;;19.30;78.50;;;;;;4987612;28;20121;-76
2021/08/21 06:24:30;;;;;;;13.65;10.48;;;19.30;78.60;;;;;;4982169;28;20370;-76
2021/08/21 06:26:55;;;;;;;14.05;10.55;;;19.30;78.80;;;;;;4984383;28;20176;-75
2021/08/21 06:29:21;;;;;;;12.75;9.60;;;19.20;79.10;;;;;;4993200;28;20057;-76
2021/08/21 06:31:46;;;;;;;13.93;10.10;;;19.20;79.50;;;;;;4993807;28;20022;-77
2021/08/21 06:34:12;;;;;;;12.75;10.02;;;19.10;79.60;;;;;;4993419;28;20121;-77
2021/08/21 06:36:41;;;;;;;14.25;11.18;;;19.00;79.80;;;;;;4992766;28;20030;-76
2021/08/21 06:39:06;;;;;;;18.80;13.73;;;19.00;80.30;;;;;;4987490;28;20390;-78
2021/08/21 06:41:32;;;;;;;18.90;13.90;;;18.90;80.50;;;;;;4994149;28;20018;-77
2021/08/21 06:43:57;;;;;;;18.90;14.80;;;18.90;80.70;;;;;;4987638;28;20481;-76
2021/08/21 06:46:23;;;;;;;13.15;10.25;;;18.90;81.20;;;;;;4986175;28;20420;-76
2021/08/21 06:48:48;;;;;;;14.98;10.95;;;18.90;81.20;;;;;;4981967;28;20039;-77
2021/08/21 06:51:14;;;;;;;20.52;15.45;;;18.80;81.20;;;;;;4978719;28;20068;-77
2021/08/21 06:53:40;;;;;;;18.90;14.10;;;18.80;81.50;;;;;;4981898;28;20030;-77
2021/08/21 06:56:06;;;;;;;15.73;11.63;;;18.80;81.60;;;;;;4997854;28;20027;-77
2021/08/21 06:58:32;;;;;;;16.73;11.63;;;18.90;81.40;;;;;;4985346;28;20484;-77
2021/08/21 07:00:58;;;;;;;16.33;12.18;;;18.90;81.10;;;;;;4986364;28;20026;-77
2021/08/21 07:03:23;;;;;;;13.43;9.35;;;18.90;81.10;;;;;;4986331;28;20034;-75
2021/08/21 07:05:50;;;;;;;12.65;9.40;;;19.00;80.90;;;;;;4985038;28;20050;-76
2021/08/21 07:08:16;;;;;;;15.88;11.95;;;19.10;80.70;;;;;;4980456;28;20023;-76
2021/08/21 07:10:41;;;;;;;11.00;8.48;;;19.40;80.30;;;;;;4985027;28;20032;-76
2021/08/21 07:13:07;;;;;;;14.13;9.60;;;20.80;78.50;;;;;;4986228;28;20466;-77
2021/08/21 07:15:32;;;;;;;15.30;11.57;;;22.00;74.70;;;;;;4984413;28;20085;-77
2021/08/21 07:17:58;;;;;;;7.70;5.97;;;22.40;72.80;;;;;;4981447;28;20504;-77
2021/08/21 07:20:24;;;;;;;14.95;11.13;;;22.90;71.20;;;;;;4983186;28;20101;-76
2021/08/21 07:22:50;;;;;;;14.20;10.82;;;22.30;71.50;;;;;;4983820;28;20038;-77
2021/08/21 07:25:15;;;;;;;10.90;8.13;;;22.30;72.10;;;;;;4985261;28;20114;-77
2021/08/21 07:27:41;;;;;;;12.80;8.43;;;22.30;71.90;;;;;;4995845;28;20026;-77
2021/08/21 07:30:07;;;;;;;10.60;8.30;;;22.10;72.30;;;;;;4982353;28;20030;-77
2021/08/21 07:32:34;;;;;;;9.80;7.13;;;23.00;71.50;;;;;;4981194;28;20023;-76
2021/08/21 07:35:00;;;;;;;12.73;9.48;;;23.50;69.80;;;;;;4993171;28;20030;-75
2021/08/21 07:37:26;;;;;;;15.00;10.93;;;24.30;67.50;;;;;;4985009;28;20113;-75
2021/08/21 07:39:51;;;;;;;11.25;8.90;;;25.20;65.20;;;;;;4993165;28;20448;-75
2021/08/21 07:42:17;;;;;;;12.43;9.60;;;25.70;63.40;;;;;;4992878;28;20033;-75
2021/08/21 07:44:43;;;;;;;12.23;9.00;;;24.70;63.30;;;;;;4989966;28;20088;-75
2021/08/21 07:47:08;;;;;;;9.77;7.32;;;23.80;65.50;;;;;;4992737;28;20018;-75
2021/08/21 07:49:34;;;;;;;10.65;8.40;;;23.40;67.50;;;;;;4990323;28;20026;-75
2021/08/21 07:51:59;;;;;;;11.30;8.77;;;23.40;67.70;;;;;;4995426;28;20027;-75
2021/08/21 07:54:25;;;;;;;8.98;7.30;;;23.70;67.00;;;;;;4988722;28;20021;-75
2021/08/21 07:56:51;;;;;;;8.98;6.90;;;24.10;67.00;;;;;;4988158;28;20029;-77
2021/08/21 07:59:16;;;;;;;9.02;7.32;;;25.10;65.10;;;;;;4983664;28;20069;-76
2021/08/21 08:01:41;;;;;;;8.75;7.20;;;25.30;63.30;;;;;;4989433;28;20023;-74
2021/08/21 08:04:07;;;;;;;6.38;5.00;;;25.70;62.30;;;;;;4986311;28;20101;-75
2021/08/21 08:06:32;;;;;;;9.63;6.88;;;25.30;62.70;;;;;;4982896;28;20465;-76
2021/08/21 08:08:58;;;;;;;10.55;7.50;;;24.80;63.90;;;;;;4993909;28;20026;-75
2021/08/21 08:11:24;;;;;;;9.25;7.05;;;24.20;65.00;;;;;;4991517;28;20025;-75
2021/08/21 08:13:49;;;;;;;7.65;6.07;;;24.00;65.80;;;;;;4991469;28;20038;-75
2021/08/21 08:16:15;;;;;;;12.25;9.50;;;23.70;66.50;;;;;;4990994;28;20053;-75
2021/08/21 08:18:40;;;;;;;9.60;7.35;;;23.30;66.90;;;;;;4993065;28;20509;-75
2021/08/21 08:21:06;;;;;;;5.05;3.95;;;23.00;67.90;;;;;;4990213;28;20015;-74
2021/08/21 08:23:31;;;;;;;11.05;7.05;;;22.90;68.60;;;;;;4988092;28;20386;-74
2021/08/21 08:25:57;;;;;;;7.75;5.82;;;22.80;68.80;;;;;;4985940;28;20030;-75
2021/08/21 08:28:22;;;;;;;8.23;6.38;;;22.80;69.20;;;;;;4988807;28;20031;-74
2021/08/21 08:30:48;;;;;;;10.25;7.97;;;23.30;68.60;;;;;;4989708;28;20080;-74
2021/08/21 08:33:13;;;;;;;10.60;8.55;;;23.20;67.70;;;;;;4989105;28;20492;-74
2021/08/21 08:35:39;;;;;;;11.23;8.50;;;23.00;68.00;;;;;;4988222;28;20031;-75
2021/08/21 08:38:04;;;;;;;10.55;8.48;;;22.70;68.40;;;;;;4984210;28;20478;-75
2021/08/21 08:40:30;;;;;;;14.02;9.90;;;22.60;69.20;;;;;;4980847;28;20027;-75
2021/08/21 08:43:03;;;;;;;9.50;7.43;;;22.60;68.90;;;;;;4987156;28;20031;-74
2021/08/21 08:45:29;;;;;;;10.73;7.57;;;22.60;69.40;;;;;;4988260;28;20042;-75
2021/08/21 08:47:55;;;;;;;8.25;6.68;;;22.90;69.30;;;;;;4982777;28;20031;-76
2021/08/21 08:50:20;;;;;;;10.07;7.43;;;23.20;68.60;;;;;;4994106;28;20029;-76
2021/08/21 08:52:46;;;;;;;11.18;8.90;;;23.30;67.90;;;;;;4991463;28;20038;-76
2021/08/21 08:55:12;;;;;;;10.52;8.57;;;23.20;67.50;;;;;;4993504;28;20380;-78
2021/08/21 08:57:42;;;;;;;9.60;6.35;;;23.10;67.00;;;;;;4991784;28;20474;-76
2021/08/21 09:00:13;;;;;;;8.13;6.75;;;23.10;67.50;;;;;;4990082;28;20437;-77
2021/08/21 09:02:45;;;;;;;11.50;9.63;;;23.20;67.60;;;;;;4989150;28;20092;-75
2021/08/21 09:05:13;;;;;;;11.40;8.82;;;23.20;66.90;;;;;;4993673;28;20026;-76
2021/08/21 09:07:44;;;;;;;8.35;6.88;;;23.10;67.70;;;;;;4989533;28;20444;-76
2021/08/21 09:10:14;;;;;;;6.68;4.97;;;23.30;67.20;;;;;;4988065;28;20022;-76
2021/08/21 09:12:39;;;;;;;6.80;5.50;;;23.50;67.20;;;;;;4988844;28;20643;-76
2021/08/21 09:15:27;;;;;;;8.93;7.30;;;23.70;66.90;;;;;;5013361;28;21397;-77
2021/08/21 09:17:59;;;;;;;7.55;6.28;;;23.50;66.50;;;;;;4991708;28;20042;-76
2021/08/21 09:20:24;;;;;;;7.80;6.57;;;23.40;66.70;;;;;;5001433;28;20029;-77
2021/08/21 09:22:50;;;;;;;10.60;8.75;;;23.30;67.00;;;;;;5000542;28;20042;-77
2021/08/21 09:25:28;;;;;;;8.32;6.22;;;23.30;66.90;;;;;;4986941;28;20034;-77
2021/08/21 09:27:54;;;;;;;8.48;6.55;;;23.40;67.00;;;;;;4988783;28;20746;-76
2021/08/21 09:30:19;;;;;;;8.95;7.05;;;23.50;67.00;;;;;;4988784;28;20062;-76
2021/08/21 09:32:46;;;;;;;5.82;4.80;;;23.60;66.80;;;;;;4984076;28;20015;-76
2021/08/21 09:51:50;;;;;;;7.93;6.80;;;24.10;65.60;;;;;;4927733;28;20031;-74
2021/08/21 09:54:20;;;;;;;8.33;7.23;;;23.90;65.50;;;;;;4953948;28;20394;-74
2021/08/21 09:56:53;;;;;;;7.70;6.00;;;23.90;65.60;;;;;;4988313;28;20470;-74
2021/08/21 09:59:35;;;;;;;6.55;5.43;;;23.90;64.60;;;;;;4992577;28;20018;-75
2021/08/21 10:02:07;;;;;;;7.93;6.05;;;23.80;64.30;;;;;;4992611;28;20023;-74
2021/08/21 10:04:34;;;;;;;6.93;5.20;;;23.80;64.20;;;;;;4991585;28;20074;-74
2021/08/21 10:07:04;;;;;;;5.40;4.22;;;23.80;64.30;;;;;;4992121;28;20049;-74
2021/08/21 10:09:32;;;;;;;8.45;5.90;;;23.90;64.70;;;;;;4990774;28;20026;-74
2021/08/21 10:11:58;;;;;;;5.75;4.30;;;24.00;64.60;;;;;;4993279;28;20030;-74
2021/08/21 10:14:25;;;;;;;6.45;5.07;;;24.20;64.60;;;;;;4992013;28;20500;-74
2021/08/21 10:16:51;;;;;;;6.05;4.40;;;24.30;63.70;;;;;;4992241;28;20462;-76
2021/08/21 10:19:18;;;;;;;7.88;6.50;;;24.30;64.00;;;;;;4990263;28;20309;-75
2021/08/21 10:21:54;;;;;;;7.18;5.85;;;24.30;63.10;;;;;;4990809;28;20027;-77
2021/08/21 10:24:48;;;;;;;5.90;3.63;;;24.30;63.60;;;;;;4989981;28;20397;-75
2021/08/21 10:27:40;;;;;;;7.28;4.60;;;24.50;62.70;;;;;;4984592;28;20051;-75
2021/08/21 10:30:17;;;;;;;5.00;4.00;;;24.50;62.20;;;;;;4988159;28;20157;-76
2021/08/21 10:33:03;;;;;;;5.38;3.67;;;24.70;62.20;;;;;;4985002;28;20027;-75
2021/08/21 10:35:48;;;;;;;5.65;4.35;;;24.80;62.00;;;;;;4986576;28;20405;-76
2021/08/21 10:38:29;;;;;;;5.55;4.10;;;24.80;61.60;;;;;;4989800;28;20125;-77
2021/08/21 10:40:55;;;;;;;5.13;3.40;;;25.00;61.40;;;;;;4986741;28;20049;-75
2021/08/21 10:43:47;;;;;;;3.28;2.88;;;25.00;61.40;;;;;;4990916;28;20023;-74
2021/08/21 10:46:32;;;;;;;6.03;4.70;;;25.10;61.70;;;;;;4992869;28;20022;-75
2021/08/21 10:49:03;;;;;;;4.53;3.10;;;25.20;61.10;;;;;;4989633;28;20093;-73
2021/08/21 10:51:42;;;;;;;3.65;2.53;;;25.30;61.20;;;;;;4988240;28;20021;-73
2021/08/21 10:54:26;;;;;;;3.70;3.00;;;25.50;60.90;;;;;;4990706;28;20089;-73
2021/08/21 10:56:56;;;;;;;2.47;2.10;;;25.60;59.70;;;;;;4987218;28;20674;-75
2021/08/21 10:59:41;;;;;;;3.40;2.80;;;25.70;60.10;;;;;;4979530;28;20040;-76
2021/08/21 11:02:36;;;;;;;5.68;3.40;;;25.70;59.20;;;;;;4998082;28;20030;-75
2021/08/21 11:05:01;;;;;;;5.03;4.00;;;25.60;57.80;;;;;;4985878;28;20018;-75
2021/08/21 11:07:30;;;;;;;5.75;3.60;;;25.50;57.90;;;;;;5004010;28;20438;-76
2021/08/21 11:10:16;;;;;;;6.43;4.32;;;25.50;57.70;;;;;;4993385;28;20105;-76
2021/08/21 11:12:47;;;;;;;4.32;3.63;;;25.30;57.60;;;;;;4981496;28;20042;-75
2021/08/21 11:15:18;;;;;;;7.38;4.95;;;25.40;58.30;;;;;;4977783;28;20094;-74
2021/08/21 11:17:45;;;;;;;5.60;4.28;;;25.30;57.80;;;;;;4977987;28;20031;-74
2021/08/21 11:20:35;;;;;;;5.93;3.70;;;25.30;57.60;;;;;;4986919;28;20029;-75
2021/08/21 11:23:06;;;;;;;4.35;2.85;;;25.30;58.20;;;;;;4981382;28;20031;-74
2021/08/21 11:25:43;;;;;;;5.05;2.50;;;25.30;57.30;;;;;;4980051;28;20551;-75
2021/08/21 11:28:20;;;;;;;2.90;2.30;;;25.30;56.50;;;;;;4984461;28;20113;-76
2021/08/21 11:31:09;;;;;;;3.55;2.70;;;25.50;56.30;;;;;;4992285;28;20014;-75
2021/08/21 11:33:40;;;;;;;3.30;2.90;;;25.50;56.40;;;;;;4998077;28;20046;-76
2021/08/21 11:36:08;;;;;;;2.55;1.88;;;25.60;56.30;;;;;;4995255;28;20088;-75
2021/08/21 11:38:36;;;;;;;2.95;1.85;;;25.70;56.60;;;;;;4988093;28;20030;-75
2021/08/21 11:41:13;;;;;;;4.53;2.90;;;25.70;56.00;;;;;;4981603;28;20045;-74
2021/08/21 11:43:41;;;;;;;4.05;2.30;;;25.60;54.70;;;;;;4989999;28;20039;-75
2021/08/21 11:46:08;;;;;;;3.08;2.35;;;25.60;55.60;;;;;;4987955;28;20023;-76
2021/08/21 11:48:36;;;;;;;3.92;2.67;;;25.70;56.00;;;;;;4989450;28;20428;-76
2021/08/21 11:51:06;;;;;;;3.92;3.30;;;26.00;56.00;;;;;;4983986;28;20025;-77
2021/08/21 11:53:37;;;;;;;5.00;3.70;;;26.00;55.30;;;;;;4987155;28;20091;-75
2021/08/21 11:56:03;;;;;;;3.87;3.00;;;26.00;55.30;;;;;;4996975;28;20762;-75
2021/08/21 11:58:48;;;;;;;5.15;3.58;;;26.10;55.40;;;;;;4994557;28;20313;-75
2021/08/21 12:01:16;;;;;;;4.05;3.00;;;26.20;55.00;;;;;;4987817;28;20018;-75
2021/08/21 12:06:31;;;;;;;3.55;2.72;;;26.10;55.20;;;;;;4993957;28;20038;-76
2021/08/21 12:09:08;;;;;;;5.97;4.35;;;26.00;55.50;;;;;;4984477;28;20034;-76
2021/08/21 12:11:34;;;;;;;3.42;2.60;;;26.00;55.40;;;;;;4988014;28;20033;-76
2021/08/21 12:14:00;;;;;;;4.03;2.50;;;25.90;55.40;;;;;;4998975;28;20034;-76
2021/08/21 12:16:29;;;;;;;2.45;1.80;;;25.90;55.90;;;;;;4994915;28;20385;-76
2021/08/21 12:18:56;;;;;;;4.35;3.15;;;26.00;56.20;;;;;;5005887;28;20489;-76
2021/08/21 12:21:23;;;;;;;3.50;2.90;;;26.00;55.40;;;;;;4996739;28;20030;-77
2021/08/21 12:23:54;;;;;;;4.72;4.05;;;25.90;55.50;;;;;;4984178;28;20046;-76
2021/08/21 12:26:41;;;;;;;3.22;2.28;;;25.70;55.30;;;;;;4996053;28;20035;-76
2021/08/21 12:29:37;;;;;;;2.42;1.90;;;25.60;56.20;;;;;;4983165;28;20581;-76
2021/08/21 12:32:03;;;;;;;3.30;2.22;;;25.70;56.40;;;;;;4994757;28;20034;-77
2021/08/21 12:34:29;;;;;;;4.13;3.30;;;25.80;56.30;;;;;;4981668;28;20501;-77
2021/08/21 12:37:03;;;;;;;3.75;2.38;;;25.90;56.00;;;;;;4990187;28;20034;-75
2021/08/21 12:39:29;;;;;;;4.88;3.50;;;26.10;56.00;;;;;;4983921;28;20297;-76
2021/08/21 12:42:03;;;;;;;3.95;3.00;;;26.00;55.80;;;;;;4992049;28;20062;-76
2021/08/21 12:44:42;;;;;;;3.65;2.50;;;25.90;56.20;;;;;;4982178;28;20033;-76
2021/08/21 12:47:17;;;;;;;3.08;2.22;;;25.90;56.50;;;;;;4988731;28;20026;-76
2021/08/21 12:49:47;;;;;;;3.15;2.50;;;25.80;56.70;;;;;;4988803;28;20022;-76
2021/08/21 12:52:27;;;;;;;2.97;2.22;;;25.90;56.70;;;;;;4987299;28;20024;-76
2021/08/21 12:55:08;;;;;;;2.72;2.28;;;25.90;56.70;;;;;;4985566;28;20029;-76
2021/08/21 12:57:35;;;;;;;2.50;1.92;;;25.90;56.40;;;;;;4987809;28;20027;-76
2021/08/21 13:00:16;;;;;;;2.70;1.95;;;25.90;56.40;;;;;;4980480;28;20101;-76
2021/08/21 13:02:51;;;;;;;2.35;1.83;;;25.90;56.40;;;;;;4983784;28;20033;-75
2021/08/21 13:05:26;;;;;;;4.15;2.80;;;26.00;56.60;;;;;;4987627;28;20089;-75
2021/08/21 13:08:02;;;;;;;3.05;2.10;;;25.90;55.90;;;;;;4979975;28;20845;-75